Time;durP1;ratioP1;P1;durP2;ratioP2;P2;SDS_P1;SDS_P2;PMS_P1;PMS_P2;Temp;Humidity;BMP_temperature;BMP_pressure;BME280_temperature;BME280_humidity;BME280_pressure;Samples;Min_cycle;Max_cycle;Signal;HPM_P1;HPM_P2
2023/02/03 00:01:55;;;;;;;;;;;9.70;99.90;;;;;;5021355;28;19909;-77
2023/02/03 00:04:21;;;;;;;;;;;9.80;99.90;;;;;;5009549;28;19961;-73
2023/02/03 00:06:46;;;;;;;;;;;9.70;99.90;;;;;;5018462;28;19920;-74
2023/02/03 00:09:13;;;;;;;;;;;9.70;99.90;;;;;;5023609;28;19917;-76
2023/02/03 00:11:38;;;;;;;;;;;9.70;99.90;;;;;;5016186;28;19916;-75
2023/02/03 00:14:06;;;;;;;;;;;9.70;99.90;;;;;;5003103;28;19910;-76
2023/02/03 00:16:32;;;;;;;;;;;9.80;99.90;;;;;;5003554;28;19918;-78
2023/02/03 00:18:58;;;;;;;;;;;9.70;99.90;;;;;;5013590;28;19917;-76
2023/02/03 00:21:23;;;;;;;;;;;9.70;99.90;;;;;;5009987;28;20055;-73
2023/02/03 00:23:49;;;;;;;;;;;9.70;99.90;;;;;;5003135;28;19924;-75
2023/02/03 00:26:15;;;;;;;;;;;9.70;99.90;;;;;;5017755;28;19917;-76
2023/02/03 00:28:41;;;;;;;;;;;9.70;99.90;;;;;;5001537;28;19992;-75
2023/02/03 00:31:13;;;;;;;;;;;9.70;99.90;;;;;;5007645;28;20609;-73
2023/02/03 00:33:38;;;;;;;;;;;9.70;99.90;;;;;;5019158;28;19914;-73
2023/02/03 00:36:07;;;;;;;;;;;9.70;99.90;;;;;;5021093;28;19936;-74
2023/02/03 00:38:33;;;;;;;;;;;9.70;99.90;;;;;;5016209;28;19921;-75
2023/02/03 00:40:58;;;;;;;;;;;9.70;99.90;;;;;;5025558;28;20054;-76
2023/02/03 00:43:24;;;;;;;;;;;9.70;99.90;;;;;;5024933;28;19973;-79
2023/02/03 00:45:49;;;;;;;;;;;9.70;99.90;;;;;;5018304;28;19917;-75
2023/02/03 00:48:15;;;;;;;;;;;9.60;99.90;;;;;;5014850;28;19913;-75
2023/02/03 00:50:40;;;;;;;;;;;9.70;99.90;;;;;;5023312;28;20071;-70
2023/02/03 00:53:06;;;;;;;;;;;9.70;99.90;;;;;;5018371;28;19981;-73
2023/02/03 00:55:31;;;;;;;;;;;9.70;99.90;;;;;;5019587;28;19914;-70
2023/02/03 00:57:57;;;;;;;;;;;9.70;99.90;;;;;;5015553;28;19909;-71
2023/02/03 01:00:22;;;;;;;;;;;9.70;99.90;;;;;;5022140;28;19916;-72
2023/02/03 01:02:48;;;;;;;;;;;9.70;99.90;;;;;;5025927;28;20020;-72
2023/02/03 01:05:13;;;;;;;;;;;9.70;99.90;;;;;;5023183;28;20039;-73
2023/02/03 01:07:39;;;;;;;;;;;9.70;99.90;;;;;;5020200;28;19975;-71
2023/02/03 01:10:05;;;;;;;;;;;9.70;99.90;;;;;;5004054;28;19932;-72
2023/02/03 01:12:31;;;;;;;;;;;9.60;99.90;;;;;;5008018;28;20004;-72
2023/02/03 01:14:56;;;;;;;;;;;9.70;99.90;;;;;;5019641;28;20274;-73
2023/02/03 01:17:22;;;;;;;;;;;9.70;99.90;;;;;;5009983;28;19910;-72
2023/02/03 01:19:49;;;;;;;;;;;9.70;99.90;;;;;;5012126;28;19914;-73
2023/02/03 01:22:15;;;;;;;;;;;9.70;99.90;;;;;;5013198;28;19910;-72
2023/02/03 01:24:40;;;;;;;;;;;9.70;99.90;;;;;;5014297;28;20012;-71
2023/02/03 01:27:06;;;;;;;;;;;9.60;99.90;;;;;;5020428;28;20646;-71
2023/02/03 01:29:31;;;;;;;;;;;9.70;99.90;;;;;;5012438;28;20020;-72
2023/02/03 01:31:57;;;;;;;;;;;9.70;99.90;;;;;;5013208;28;19944;-72
2023/02/03 01:34:22;;;;;;;;;;;9.60;99.90;;;;;;5010773;28;19959;-70
2023/02/03 01:36:48;;;;;;;;;;;9.60;99.90;;;;;;5010218;28;20070;-71
2023/02/03 01:39:16;;;;;;;;;;;9.60;99.90;;;;;;5011871;28;20606;-73
2023/02/03 01:41:42;;;;;;;;;;;9.60;99.90;;;;;;5013455;28;19918;-72
2023/02/03 01:44:26;;;;;;;;;;;9.60;99.90;;;;;;5017592;28;19913;-75
2023/02/03 01:46:52;;;;;;;;;;;9.60;99.90;;;;;;5013123;28;19917;-72
2023/02/03 01:49:26;;;;;;;;;;;9.60;99.90;;;;;;5008357;28;19997;-71
2023/02/03 01:51:52;;;;;;;;;;;9.60;99.90;;;;;;5012099;28;20336;-72
2023/02/03 01:54:21;;;;;;;;;;;9.60;99.90;;;;;;5006356;28;19913;-72
2023/02/03 01:56:50;;;;;;;;;;;9.60;99.90;;;;;;5014334;28;20326;-73
2023/02/03 01:59:17;;;;;;;;;;;9.60;99.90;;;;;;5018096;28;20589;-73
2023/02/03 02:01:44;;;;;;;;;;;9.60;99.90;;;;;;5005171;28;20339;-72
2023/02/03 02:04:09;;;;;;;;;;;9.70;99.90;;;;;;5004459;28;20032;-70
2023/02/03 02:06:35;;;;;;;;;;;9.60;99.90;;;;;;5027996;28;19929;-71
2023/02/03 02:09:01;;;;;;;;;;;9.60;99.90;;;;;;5025648;28;19914;-72
2023/02/03 02:11:27;;;;;;;;;;;9.60;99.90;;;;;;5031787;28;19936;-72
2023/02/03 02:13:54;;;;;;;;;;;9.60;99.90;;;;;;5018394;28;19914;-72
2023/02/03 02:16:22;;;;;;;;;;;9.60;99.90;;;;;;5008124;28;20558;-73
2023/02/03 02:19:08;;;;;;;;;;;9.60;99.90;;;;;;5016073;28;20591;-73
2023/02/03 02:21:34;;;;;;;;;;;9.70;99.90;;;;;;5015562;28;19910;-78
2023/02/03 02:24:18;;;;;;;;;;;9.70;99.90;;;;;;5020287;28;19920;-79
2023/02/03 02:26:50;;;;;;;;;;;9.70;99.90;;;;;;5015112;28;19952;-76
2023/02/03 02:29:26;;;;;;;;;;;9.70;99.90;;;;;;5021267;28;19917;-76
2023/02/03 02:32:03;;;;;;;;;;;9.60;99.90;;;;;;5023374;28;20645;-75
2023/02/03 02:34:32;;;;;;;;;;;9.70;99.90;;;;;;5007175;28;19917;-75
2023/02/03 02:36:57;;;;;;;;;;;9.70;99.90;;;;;;4999821;28;19917;-77
2023/02/03 02:39:26;;;;;;;;;;;9.70;99.90;;;;;;5010066;28;19909;-76
2023/02/03 02:41:55;;;;;;;;;;;9.70;99.90;;;;;;5014381;28;19914;-73
2023/02/03 02:44:42;;;;;;;;;;;9.70;99.90;;;;;;5003881;28;19910;-75
2023/02/03 02:47:18;;;;;;;;;;;9.70;99.90;;;;;;5001694;28;20036;-74
2023/02/03 02:49:47;;;;;;;;;;;9.70;99.90;;;;;;5015709;28;19926;-74
2023/02/03 02:52:13;;;;;;;;;;;9.70;99.90;;;;;;5014578;28;19917;-74
2023/02/03 02:54:40;;;;;;;;;;;9.70;99.90;;;;;;5004255;28;19968;-73
2023/02/03 02:57:09;;;;;;;;;;;9.70;99.90;;;;;;5006345;28;19917;-75
2023/02/03 02:59:35;;;;;;;;;;;9.70;99.90;;;;;;5005987;28;19996;-71
2023/02/03 03:02:01;;;;;;;;;;;9.70;99.90;;;;;;5018052;28;19956;-74
2023/02/03 03:04:28;;;;;;;;;;;9.70;99.90;;;;;;5009355;28;20554;-75
2023/02/03 03:07:17;;;;;;;;;;;9.70;99.90;;;;;;5015880;28;19920;-76
2023/02/03 03:09:54;;;;;;;;;;;9.70;99.90;;;;;;5003854;28;19913;-77
2023/02/03 03:12:26;;;;;;;;;;;9.70;99.90;;;;;;5009029;28;19921;-74
2023/02/03 03:14:58;;;;;;;;;;;9.70;99.90;;;;;;5005786;28;19964;-75
2023/02/03 03:17:27;;;;;;;;;;;9.70;99.90;;;;;;4992237;28;19920;-74
2023/02/03 03:19:54;;;;;;;;;;;9.70;99.90;;;;;;4997670;28;19920;-77
2023/02/03 03:22:22;;;;;;;;;;;9.70;99.90;;;;;;5002586;28;20118;-74
2023/02/03 03:24:49;;;;;;;;;;;9.70;99.90;;;;;;5004557;28;19913;-74
2023/02/03 03:27:15;;;;;;;;;;;9.70;99.90;;;;;;5018857;28;19909;-75
2023/02/03 03:29:49;;;;;;;;;;;9.60;99.90;;;;;;4999535;28;19909;-74
2023/02/03 03:32:15;;;;;;;;;;;9.60;99.90;;;;;;5015534;28;19960;-74
2023/02/03 03:34:41;;;;;;;;;;;9.70;99.90;;;;;;5003199;28;19910;-75
2023/02/03 03:37:18;;;;;;;;;;;9.60;99.90;;;;;;5001997;28;19917;-73
2023/02/03 03:39:55;;;;;;;;;;;9.60;99.90;;;;;;5005483;28;20393;-74
2023/02/03 03:42:29;;;;;;;;;;;9.70;99.90;;;;;;4995759;28;19921;-74
2023/02/03 03:44:55;;;;;;;;;;;9.70;99.90;;;;;;4993360;28;19916;-73
2023/02/03 03:47:30;;;;;;;;;;;9.70;99.90;;;;;;4988167;28;19917;-75
2023/02/03 03:49:56;;;;;;;;;;;9.60;99.90;;;;;;4990191;28;19921;-73
2023/02/03 03:52:25;;;;;;;;;;;9.70;99.90;;;;;;4995560;28;19922;-74
2023/02/03 03:54:52;;;;;;;;;;;9.70;99.90;;;;;;5016357;28;19944;-77
2023/02/03 03:57:21;;;;;;;;;;;9.70;99.90;;;;;;5000023;28;19917;-75
2023/02/03 03:59:47;;;;;;;;;;;9.70;99.90;;;;;;5002850;28;19940;-75
2023/02/03 04:02:13;;;;;;;;;;;9.60;99.90;;;;;;4995665;28;19920;-75
2023/02/03 04:04:40;;;;;;;;;;;9.70;99.90;;;;;;5003360;28;19949;-73
2023/02/03 04:07:05;;;;;;;;;;;9.60;99.90;;;;;;5013744;28;19976;-76
2023/02/03 04:09:31;;;;;;;;;;;9.60;99.90;;;;;;4998215;28;19964;-75
2023/02/03 04:12:00;;;;;;;;;;;9.60;99.90;;;;;;4997749;28;19916;-75
2023/02/03 04:14:26;;;;;;;;;;;9.60;99.90;;;;;;5010236;28;19917;-75
2023/02/03 04:16:52;;;;;;;;;;;9.60;99.90;;;;;;5008247;28;19917;-76
2023/02/03 04:19:17;;;;;;;;;;;9.60;99.90;;;;;;5008267;28;19964;-73
2023/02/03 04:21:43;;;;;;;;;;;9.60;99.90;;;;;;5008743;28;20287;-75
2023/02/03 04:24:08;;;;;;;;;;;9.60;99.90;;;;;;5006729;28;20403;-76
2023/02/03 04:26:34;;;;;;;;;;;9.60;99.90;;;;;;4998543;28;19914;-74
2023/02/03 04:28:59;;;;;;;;;;;9.50;99.90;;;;;;5004842;28;19972;-74
2023/02/03 04:31:25;;;;;;;;;;;9.50;99.90;;;;;;5007082;28;19920;-74
2023/02/03 04:33:50;;;;;;;;;;;9.50;99.90;;;;;;5006870;28;20431;-74
2023/02/03 04:36:16;;;;;;;;;;;9.50;99.90;;;;;;5003759;28;19919;-74
2023/02/03 04:38:41;;;;;;;;;;;9.50;99.90;;;;;;5003524;28;19929;-74
2023/02/03 04:41:07;;;;;;;;;;;9.50;99.90;;;;;;5014869;28;20533;-75
2023/02/03 04:43:32;;;;;;;;;;;9.50;99.90;;;;;;5009176;28;19980;-74
2023/02/03 04:45:58;;;;;;;;;;;9.50;99.90;;;;;;5014350;28;20011;-75
2023/02/03 04:48:24;;;;;;;;;;;9.50;99.90;;;;;;5014572;28;19963;-75
2023/02/03 04:50:49;;;;;;;;;;;9.50;99.90;;;;;;5015487;28;19913;-74
2023/02/03 04:53:15;;;;;;;;;;;9.50;99.90;;;;;;5005035;28;20384;-73
2023/02/03 04:55:40;;;;;;;;;;;9.50;99.90;;;;;;5000576;28;19919;-74
2023/02/03 04:58:06;;;;;;;;;;;9.50;99.90;;;;;;5006178;28;19924;-74
2023/02/03 05:00:31;;;;;;;;;;;9.50;99.90;;;;;;5009596;28;19917;-74
2023/02/03 05:02:57;;;;;;;;;;;9.50;99.90;;;;;;5004119;28;19921;-75
2023/02/03 05:05:22;;;;;;;;;;;9.50;99.90;;;;;;5006528;28;19913;-76
2023/02/03 05:07:48;;;;;;;;;;;9.50;99.90;;;;;;5007826;28;20919;-76
2023/02/03 05:10:13;;;;;;;;;;;9.40;99.90;;;;;;5008585;28;20414;-75
2023/02/03 05:12:39;;;;;;;;;;;9.50;99.90;;;;;;5008464;28;19921;-78
2023/02/03 05:15:05;;;;;;;;;;;9.50;99.90;;;;;;5007556;28;19917;-75
2023/02/03 05:17:30;;;;;;;;;;;9.50;99.90;;;;;;5001055;28;19917;-74
2023/02/03 05:19:56;;;;;;;;;;;9.50;99.90;;;;;;5018940;28;19956;-76
2023/02/03 05:22:21;;;;;;;;;;;9.50;99.90;;;;;;5004817;28;20002;-74
2023/02/03 05:24:47;;;;;;;;;;;9.50;99.90;;;;;;5006174;28;19910;-74
2023/02/03 05:27:12;;;;;;;;;;;9.50;99.90;;;;;;5017819;28;19995;-75
2023/02/03 05:29:38;;;;;;;;;;;9.40;99.90;;;;;;5007940;28;20084;-75
2023/02/03 05:32:03;;;;;;;;;;;9.50;99.90;;;;;;5014353;28;19924;-74
2023/02/03 05:34:29;;;;;;;;;;;9.40;99.90;;;;;;5010913;28;19920;-75
2023/02/03 05:36:54;;;;;;;;;;;9.40;99.90;;;;;;5008996;28;19917;-76
2023/02/03 05:39:20;;;;;;;;;;;9.40;99.90;;;;;;5016881;28;19910;-76
2023/02/03 05:41:51;;;;;;;;;;;9.50;99.90;;;;;;5006256;28;19940;-75
2023/02/03 05:44:21;;;;;;;;;;;9.50;99.90;;;;;;5017074;28;19924;-78
2023/02/03 05:46:46;;;;;;;;;;;9.50;99.90;;;;;;5011240;28;19941;-75
2023/02/03 05:49:12;;;;;;;;;;;9.50;99.90;;;;;;5008647;28;20003;-74
2023/02/03 05:51:38;;;;;;;;;;;9.50;99.90;;;;;;5007403;28;19914;-74
2023/02/03 05:54:04;;;;;;;;;;;9.50;99.90;;;;;;5012440;28;19924;-78
2023/02/03 05:56:30;;;;;;;;;;;9.50;99.90;;;;;;5010405;28;20518;-74
2023/02/03 05:58:55;;;;;;;;;;;9.40;99.90;;;;;;5011237;28;19916;-72
2023/02/03 06:01:21;;;;;;;;;;;9.50;99.90;;;;;;5010560;28;19968;-75
2023/02/03 06:03:46;;;;;;;;;;;9.40;99.90;;;;;;5005803;28;19905;-73
2023/02/03 06:06:12;;;;;;;;;;;9.50;99.90;;;;;;5001478;28;19957;-77
2023/02/03 06:08:38;;;;;;;;;;;9.50;99.90;;;;;;5009964;28;20523;-74
2023/02/03 06:11:03;;;;;;;;;;;9.50;99.90;;;;;;5012389;28;20379;-77
2023/02/03 06:13:29;;;;;;;;;;;9.50;99.90;;;;;;5020946;28;19992;-74
2023/02/03 06:15:55;;;;;;;;;;;9.40;99.90;;;;;;5015495;28;19913;-74
2023/02/03 06:18:20;;;;;;;;;;;9.50;99.90;;;;;;5012425;28;20431;-74
2023/02/03 06:20:46;;;;;;;;;;;9.40;99.90;;;;;;5002466;28;19913;-75
2023/02/03 06:23:12;;;;;;;;;;;9.40;99.90;;;;;;5001092;28;20118;-75
2023/02/03 06:25:37;;;;;;;;;;;9.40;99.90;;;;;;5005532;28;20008;-75
2023/02/03 06:28:03;;;;;;;;;;;9.40;99.90;;;;;;4998989;28;19924;-74
2023/02/03 06:30:28;;;;;;;;;;;9.40;99.90;;;;;;4999785;28;20517;-76
2023/02/03 06:32:54;;;;;;;;;;;9.40;99.90;;;;;;5002170;28;19933;-76
2023/02/03 06:35:19;;;;;;;;;;;9.50;99.90;;;;;;5001629;28;20008;-75
2023/02/03 06:37:45;;;;;;;;;;;9.40;99.90;;;;;;5018602;28;19914;-76
2023/02/03 06:40:11;;;;;;;;;;;9.40;99.90;;;;;;5001334;28;19949;-77
2023/02/03 06:42:36;;;;;;;;;;;9.40;99.90;;;;;;4999483;28;20021;-76
2023/02/03 06:45:02;;;;;;;;;;;9.40;99.90;;;;;;5000765;28;20041;-74
2023/02/03 06:47:28;;;;;;;;;;;9.40;99.90;;;;;;4995889;28;20005;-75
2023/02/03 06:49:53;;;;;;;;;;;9.40;99.90;;;;;;5000697;28;19952;-76
2023/02/03 06:52:19;;;;;;;;;;;9.40;99.90;;;;;;5004724;28;19953;-77
2023/02/03 06:54:44;;;;;;;;;;;9.40;99.90;;;;;;5005203;28;19980;-75
2023/02/03 06:57:10;;;;;;;;;;;9.40;99.90;;;;;;5008486;28;19972;-74
2023/02/03 06:59:35;;;;;;;;;;;9.40;99.90;;;;;;5013602;28;19908;-77
2023/02/03 07:02:01;;;;;;;;;;;9.40;99.90;;;;;;5010116;28;19917;-75
2023/02/03 07:04:28;;;;;;;;;;;9.50;99.90;;;;;;5009078;28;19949;-76
2023/02/03 07:06:57;;;;;;;;;;;9.40;99.90;;;;;;5012652;28;20029;-78
2023/02/03 07:09:23;;;;;;;;;;;9.50;99.90;;;;;;5036699;28;19947;-72
2023/02/03 07:11:48;;;;;;;;;;;9.50;99.90;;;;;;5016299;28;19917;-72
2023/02/03 07:14:14;;;;;;;;;;;9.50;99.90;;;;;;5014677;28;19917;-71
2023/02/03 07:16:40;;;;;;;;;;;9.50;99.90;;;;;;5006651;28;20532;-75
2023/02/03 07:19:07;;;;;;;;;;;9.50;99.90;;;;;;5010770;28;20281;-74
2023/02/03 07:21:33;;;;;;;;;;;9.50;99.90;;;;;;5008469;28;19919;-71
2023/02/03 07:23:58;;;;;;;;;;;9.50;99.90;;;;;;5013543;28;19910;-73
2023/02/03 07:26:25;;;;;;;;;;;9.50;99.90;;;;;;5020736;28;20504;-73
2023/02/03 07:28:51;;;;;;;;;;;9.50;99.90;;;;;;5013220;28;19909;-71
2023/02/03 07:31:17;;;;;;;;;;;9.50;99.90;;;;;;5016868;28;20410;-72
2023/02/03 07:33:42;;;;;;;;;;;9.50;99.90;;;;;;5008181;28;19932;-74
2023/02/03 07:36:08;;;;;;;;;;;9.50;99.90;;;;;;5006252;28;19910;-76
2023/02/03 07:38:34;;;;;;;;;;;9.50;99.90;;;;;;5037295;28;20288;-74
2023/02/03 07:40:59;;;;;;;;;;;9.50;99.90;;;;;;5012214;28;19956;-76
2023/02/03 07:43:25;;;;;;;;;;;9.50;99.90;;;;;;5002177;28;20429;-76
2023/02/03 07:45:51;;;;;;;;;;;9.50;99.90;;;;;;5003858;28;19915;-75
2023/02/03 07:48:16;;;;;;;;;;;9.50;99.90;;;;;;5014478;28;19909;-76
2023/02/03 07:50:42;;;;;;;;;;;9.50;99.90;;;;;;5003825;28;20031;-74
2023/02/03 07:53:08;;;;;;;;;;;9.50;99.90;;;;;;5006904;28;19940;-75
2023/02/03 07:55:34;;;;;;;;;;;9.60;99.90;;;;;;5008595;28;19910;-74
2023/02/03 07:57:59;;;;;;;;;;;9.60;99.90;;;;;;5016025;28;19988;-75
2023/02/03 08:00:25;;;;;;;;;;;9.60;99.90;;;;;;5014178;28;19909;-77
2023/02/03 08:02:51;;;;;;;;;;;9.60;99.90;;;;;;5007487;28;19912;-75
2023/02/03 08:05:17;;;;;;;;;;;9.60;99.90;;;;;;5001112;28;20012;-75
2023/02/03 08:07:43;;;;;;;;;;;9.60;99.90;;;;;;5022433;28;20248;-76
2023/02/03 08:10:09;;;;;;;;;;;9.60;99.90;;;;;;5004836;28;20419;-74
2023/02/03 08:12:34;;;;;;;;;;;9.70;99.90;;;;;;5007561;28;19932;-75
2023/02/03 08:15:00;;;;;;;;;;;9.70;99.90;;;;;;5007362;28;19917;-77
2023/02/03 08:17:25;;;;;;;;;;;9.70;99.90;;;;;;5014321;28;19936;-76
2023/02/03 08:19:51;;;;;;;;;;;9.70;99.90;;;;;;5012172;28;19972;-74
2023/02/03 08:22:16;;;;;;;;;;;9.70;99.90;;;;;;5023073;28;19909;-76
2023/02/03 08:24:44;;;;;;;;;;;9.70;99.90;;;;;;5011816;28;20378;-77
2023/02/03 08:27:14;;;;;;;;;;;9.70;99.90;;;;;;5010898;28;19913;-77
2023/02/03 08:29:39;;;;;;;;;;;9.70;99.90;;;;;;5009603;28;20459;-76
2023/02/03 08:32:07;;;;;;;;;;;9.70;99.90;;;;;;5007080;28;19976;-73
2023/02/03 08:34:33;;;;;;;;;;;9.70;99.90;;;;;;5012411;28;19924;-75
2023/02/03 08:36:59;;;;;;;;;;;9.80;99.90;;;;;;5010122;28;19913;-76
2023/02/03 08:39:25;;;;;;;;;;;9.80;99.90;;;;;;5015591;28;19914;-76
2023/02/03 08:41:51;;;;;;;;;;;9.80;99.90;;;;;;5016755;28;19910;-75
2023/02/03 08:44:18;;;;;;;;;;;9.80;99.90;;;;;;5019368;28;20041;-78
2023/02/03 08:46:44;;;;;;;;;;;9.90;99.90;;;;;;5008910;28;19931;-77
2023/02/03 08:49:10;;;;;;;;;;;9.90;99.90;;;;;;5015645;28;19909;-75
2023/02/03 08:51:36;;;;;;;;;;;9.90;99.90;;;;;;5019299;28;19916;-78
2023/02/03 08:54:02;;;;;;;;;;;9.90;99.90;;;;;;5009499;28;19921;-76
2023/02/03 08:56:27;;;;;;;;;;;9.90;99.90;;;;;;5017134;28;19909;-76
2023/02/03 08:58:53;;;;;;;;;;;9.90;99.90;;;;;;5015723;28;20327;-76
2023/02/03 09:01:19;;;;;;;;;;;9.90;99.90;;;;;;5008628;28;19916;-76
2023/02/03 09:03:45;;;;;;;;;;;10.00;99.90;;;;;;5012139;28;19909;-78
2023/02/03 09:06:11;;;;;;;;;;;10.00;99.90;;;;;;5015374;28;20022;-76
2023/02/03 09:08:37;;;;;;;;;;;10.00;99.90;;;;;;5012005;28;19959;-80
2023/02/03 09:11:07;;;;;;;;;;;10.00;99.90;;;;;;5027976;28;19913;-76
2023/02/03 09:13:32;;;;;;;;;;;10.10;99.90;;;;;;5036158;28;19917;-74
2023/02/03 09:15:59;;;;;;;;;;;10.10;99.90;;;;;;5026701;28;19944;-76
2023/02/03 09:18:24;;;;;;;;;;;10.10;99.90;;;;;;5024948;28;19984;-75
2023/02/03 09:20:50;;;;;;;;;;;10.10;99.90;;;;;;5030684;28;19905;-77
2023/02/03 09:23:15;;;;;;;;;;;10.10;99.90;;;;;;5021293;28;20063;-74
2023/02/03 09:25:41;;;;;;;;;;;10.10;99.90;;;;;;5009783;28;21029;-77
2023/02/03 09:28:07;;;;;;;;;;;10.10;99.90;;;;;;5015455;28;19913;-75
2023/02/03 09:30:32;;;;;;;;;;;10.10;99.90;;;;;;5011458;28;19968;-75
2023/02/03 09:32:58;;;;;;;;;;;10.10;99.90;;;;;;5009937;28;19935;-76
2023/02/03 09:35:25;;;;;;;;;;;10.10;99.90;;;;;;5019054;28;19949;-78
2023/02/03 09:37:51;;;;;;;;;;;10.10;99.90;;;;;;5016618;28;19909;-75
2023/02/03 09:40:21;;;;;;;;;;;10.10;99.90;;;;;;5030352;28;19933;-77
2023/02/03 09:42:46;;;;;;;;;;;10.10;99.90;;;;;;5027970;28;19997;-74
2023/02/03 09:45:11;;;;;;;;;;;10.20;99.90;;;;;;5011850;28;20540;-78
2023/02/03 09:47:39;;;;;;;;;;;10.20;99.90;;;;;;5022397;28;19936;-78
2023/02/03 09:50:06;;;;;;;;;;;10.20;99.90;;;;;;5015864;28;19987;-75
2023/02/03 09:52:32;;;;;;;;;;;10.20;99.90;;;;;;5014609;28;19917;-76
2023/02/03 09:55:04;;;;;;;;;;;10.20;99.90;;;;;;5021219;28;19943;-77
2023/02/03 09:57:31;;;;;;;;;;;10.30;99.90;;;;;;5016271;28;20375;-75
2023/02/03 09:59:58;;;;;;;;;;;10.40;99.90;;;;;;5010259;28;19996;-79
2023/02/03 10:02:30;;;;;;;;;;;10.50;99.90;;;;;;5005677;28;20385;-78
2023/02/03 10:05:14;;;;;;;;;;;10.50;99.90;;;;;;5009212;28;19948;-74
2023/02/03 10:07:45;;;;;;;;;;;10.50;99.90;;;;;;5014535;28;19983;-75
2023/02/03 10:10:34;;;;;;;;;;;10.60;99.90;;;;;;5030122;28;19921;-74
2023/02/03 10:13:00;;;;;;;;;;;10.50;99.90;;;;;;5010378;28;19921;-78
2023/02/03 10:15:26;;;;;;;;;;;10.50;99.90;;;;;;5014125;28;19910;-74
2023/02/03 10:17:53;;;;;;;;;;;10.50;99.90;;;;;;5006375;28;19910;-79
2023/02/03 10:20:20;;;;;;;;;;;10.50;99.90;;;;;;5005883;28;20152;-74
2023/02/03 10:22:56;;;;;;;;;;;10.60;99.90;;;;;;5010027;28;19913;-75
2023/02/03 10:25:29;;;;;;;;;;;10.50;99.90;;;;;;5011595;28;19909;-73
2023/02/03 10:27:57;;;;;;;;;;;10.60;99.90;;;;;;5022681;28;19909;-74
2023/02/03 10:30:25;;;;;;;;;;;10.70;99.90;;;;;;5014706;28;19913;-72
2023/02/03 10:32:53;;;;;;;;;;;10.70;99.90;;;;;;5020469;28;20599;-73
2023/02/03 10:35:20;;;;;;;;;;;10.70;99.90;;;;;;5011633;28;19910;-73
2023/02/03 10:37:48;;;;;;;;;;;10.80;99.90;;;;;;5015230;28;19910;-74
2023/02/03 10:40:14;;;;;;;;;;;10.80;99.90;;;;;;5014273;28;19914;-73
2023/02/03 10:45:26;;;;;;;;;;;10.80;99.90;;;;;;5007859;28;20023;-72
2023/02/03 10:47:53;;;;;;;;;;;10.70;99.90;;;;;;5002418;28;20385;-73
2023/02/03 10:50:20;;;;;;;;;;;10.80;99.90;;;;;;5003709;28;19916;-74
2023/02/03 10:52:45;;;;;;;;;;;10.90;99.90;;;;;;5006992;28;19914;-72
2023/02/03 10:55:21;;;;;;;;;;;10.90;99.90;;;;;;5014374;28;19909;-73
2023/02/03 10:57:47;;;;;;;;;;;10.90;99.90;;;;;;5008934;28;19924;-74
2023/02/03 11:00:29;;;;;;;;;;;10.90;99.90;;;;;;5009210;28;19914;-73
2023/02/03 11:03:01;;;;;;;;;;;10.90;99.90;;;;;;4999699;28;19909;-74
2023/02/03 11:05:27;;;;;;;;;;;10.90;99.90;;;;;;5004125;28;19945;-74
2023/02/03 11:07:53;;;;;;;;;;;10.90;99.90;;;;;;5006191;28;19972;-73
2023/02/03 11:10:35;;;;;;;;;;;11.00;99.90;;;;;;5006006;28;19917;-74
2023/02/03 11:13:16;;;;;;;;;;;11.00;99.90;;;;;;5010656;28;19913;-77
2023/02/03 11:15:52;;;;;;;;;;;11.00;99.90;;;;;;5018826;28;19909;-73
2023/02/03 11:18:33;;;;;;;;;;;11.00;99.90;;;;;;5005065;28;20008;-73
2023/02/03 11:20:59;;;;;;;;;;;11.10;99.90;;;;;;5003790;28;20485;-72
2023/02/03 11:23:24;;;;;;;;;;;11.00;99.90;;;;;;5000500;28;20001;-75
2023/02/03 11:25:50;;;;;;;;;;;11.10;99.90;;;;;;5013534;28;19944;-74
2023/02/03 11:28:16;;;;;;;;;;;11.10;99.90;;;;;;5014776;28;19913;-73
2023/02/03 11:30:41;;;;;;;;;;;11.10;99.90;;;;;;5008307;28;19913;-73
2023/02/03 11:33:18;;;;;;;;;;;11.10;99.90;;;;;;5009029;28;20008;-75
2023/02/03 11:35:54;;;;;;;;;;;11.30;99.90;;;;;;5012106;28;19910;-78
2023/02/03 11:38:28;;;;;;;;;;;11.20;99.90;;;;;;5011091;28;19909;-75
2023/02/03 11:41:00;;;;;;;;;;;11.30;99.90;;;;;;5010960;28;19952;-73
2023/02/03 11:43:27;;;;;;;;;;;11.30;99.90;;;;;;5005050;28;19944;-75
2023/02/03 11:45:58;;;;;;;;;;;11.30;99.90;;;;;;5011109;28;20543;-73
2023/02/03 11:48:32;;;;;;;;;;;11.30;99.90;;;;;;5013736;28;19917;-76
2023/02/03 11:50:57;;;;;;;;;;;11.40;99.90;;;;;;5021319;28;19933;-75
2023/02/03 11:53:41;;;;;;;;;;;11.30;99.90;;;;;;5024501;28;19992;-72
2023/02/03 11:56:13;;;;;;;;;;;11.30;99.90;;;;;;5013568;28;19910;-71
2023/02/03 11:58:44;;;;;;;;;;;11.30;99.90;;;;;;4999614;28;19914;-78
2023/02/03 12:01:09;;;;;;;;;;;11.40;99.90;;;;;;5008120;28;19933;-76
2023/02/03 12:03:42;;;;;;;;;;;11.40;99.90;;;;;;5016955;28;19910;-76
2023/02/03 12:06:20;;;;;;;;;;;11.30;99.90;;;;;;5015403;28;20009;-75
2023/02/03 12:08:46;;;;;;;;;;;11.30;99.90;;;;;;5013264;28;19957;-73
2023/02/03 12:11:30;;;;;;;;;;;11.30;99.90;;;;;;5024557;28;20286;-78
2023/02/03 12:13:55;;;;;;;;;;;11.20;99.90;;;;;;4997763;28;20399;-77
2023/02/03 12:16:39;;;;;;;;;;;11.10;99.90;;;;;;5005725;28;19920;-75
2023/02/03 12:19:23;;;;;;;;;;;11.10;99.90;;;;;;5006413;28;20394;-79
2023/02/03 12:21:53;;;;;;;;;;;11.10;99.90;;;;;;5000155;28;19960;-76
2023/02/03 12:24:41;;;;;;;;;;;11.10;99.90;;;;;;5005202;28;19909;-75
2023/02/03 12:27:33;;;;;;;;;;;11.20;99.90;;;;;;5005322;28;20600;-74
2023/02/03 12:30:02;;;;;;;;;;;11.00;99.90;;;;;;5007258;28;19956;-75
2023/02/03 12:32:33;;;;;;;;;;;11.00;99.90;;;;;;5008202;28;19964;-77
2023/02/03 12:35:04;;;;;;;;;;;11.10;99.90;;;;;;5007935;28;20712;-77
2023/02/03 12:37:33;;;;;;;;;;;11.10;99.90;;;;;;5011866;28;19992;-77
2023/02/03 12:40:03;;;;;;;;;;;11.10;99.90;;;;;;5009517;28;20374;-74
2023/02/03 12:42:55;;;;;;;;;;;11.10;99.90;;;;;;5018554;28;19913;-76
2023/02/03 12:45:25;;;;;;;;;;;11.20;99.90;;;;;;4988810;28;19910;-74
2023/02/03 12:47:57;;;;;;;;;;;11.20;99.90;;;;;;5012811;28;19947;-76
2023/02/03 12:50:29;;;;;;;;;;;11.30;99.90;;;;;;5008451;28;19909;-77
2023/02/03 12:53:00;;;;;;;;;;;11.30;99.90;;;;;;5007572;28;19921;-78
2023/02/03 12:55:37;;;;;;;;;;;11.30;99.90;;;;;;5014422;28;19916;-76
2023/02/03 12:58:09;;;;;;;;;;;11.40;99.90;;;;;;5005465;28;19937;-75
2023/02/03 13:00:37;;;;;;;;;;;11.40;99.90;;;;;;5004339;28;19917;-76
2023/02/03 13:03:18;;;;;;;;;;;11.40;99.90;;;;;;5017851;28;19914;-77
2023/02/03 13:05:50;;;;;;;;;;;11.40;99.90;;;;;;5033359;28;20299;-77
2023/02/03 13:08:21;;;;;;;;;;;11.40;99.90;;;;;;5020232;28;19918;-74
2023/02/03 13:10:53;;;;;;;;;;;11.40;99.90;;;;;;5016736;28;19985;-77
2023/02/03 13:13:27;;;;;;;;;;;11.40;99.90;;;;;;5010844;28;20564;-73
2023/02/03 13:15:53;;;;;;;;;;;11.40;99.90;;;;;;5024261;28;19913;-75
2023/02/03 13:18:25;;;;;;;;;;;11.40;99.90;;;;;;5024344;28;19948;-75
2023/02/03 13:20:52;;;;;;;;;;;11.40;99.90;;;;;;5022521;28;19913;-75
2023/02/03 13:23:18;;;;;;;;;;;11.30;99.90;;;;;;5016686;28;19975;-75
2023/02/03 13:26:02;;;;;;;;;;;11.30;99.90;;;;;;5016884;28;19972;-73
2023/02/03 13:28:46;;;;;;;;;;;11.30;99.90;;;;;;5016822;28;19910;-72
2023/02/03 13:31:17;;;;;;;;;;;11.40;99.90;;;;;;5007832;28;19955;-74
2023/02/03 13:33:55;;;;;;;;;;;11.40;99.90;;;;;;5015920;28;19975;-74
2023/02/03 13:36:33;;;;;;;;;;;11.40;99.90;;;;;;5009500;28;20422;-73
2023/02/03 13:39:34;;;;;;;;;;;11.30;99.90;;;;;;5026349;28;19909;-74
2023/02/03 13:42:18;;;;;;;;;;;11.30;99.90;;;;;;4968265;28;20448;-73
2023/02/03 13:44:46;;;;;;;;;;;11.30;99.90;;;;;;5005718;28;19949;-73
2023/02/03 13:47:16;;;;;;;;;;;11.30;99.90;;;;;;5001020;28;20375;-72
2023/02/03 13:49:45;;;;;;;;;;;11.30;99.90;;;;;;5014018;28;19964;-75
2023/02/03 13:52:49;;;;;;;;;;;11.20;99.90;;;;;;5010776;28;19913;-74
2023/02/03 13:55:25;;;;;;;;;;;11.30;99.90;;;;;;4965593;28;19910;-73
2023/02/03 13:57:51;;;;;;;;;;;11.20;99.90;;;;;;4966127;28;20089;-74
2023/02/03 14:00:37;;;;;;;;;;;11.20;99.90;;;;;;4983347;28;20075;-72
2023/02/03 14:03:02;;;;;;;;;;;11.20;99.90;;;;;;4990178;28;20395;-74
2023/02/03 14:05:51;;;;;;;;;;;11.20;99.90;;;;;;5012694;28;20004;-73
2023/02/03 14:08:26;;;;;;;;;;;11.20;99.90;;;;;;5004957;28;20413;-72
2023/02/03 14:11:10;;;;;;;;;;;11.10;99.90;;;;;;5000606;28;19920;-72
2023/02/03 14:13:35;;;;;;;;;;;11.20;99.90;;;;;;5003637;28;19951;-74
2023/02/03 14:16:22;;;;;;;;;;;11.10;99.90;;;;;;5002915;28;19910;-74
2023/02/03 14:18:48;;;;;;;;;;;11.10;99.90;;;;;;5009314;28;19917;-73
2023/02/03 14:21:18;;;;;;;;;;;11.10;99.90;;;;;;5010166;28;20054;-75
2023/02/03 14:23:49;;;;;;;;;;;11.10;99.90;;;;;;5004847;28;20012;-75
2023/02/03 14:26:17;;;;;;;;;;;11.20;99.90;;;;;;5002402;28;19913;-72
2023/02/03 14:28:43;;;;;;;;;;;11.10;99.90;;;;;;5009112;28;19919;-74
2023/02/03 14:31:16;;;;;;;;;;;11.10;99.90;;;;;;5005307;28;19914;-75
2023/02/03 14:33:47;;;;;;;;;;;11.10;99.90;;;;;;5004554;28;19914;-75
2023/02/03 14:36:25;;;;;;;;;;;11.10;99.90;;;;;;5007634;28;19913;-73
2023/02/03 14:38:50;;;;;;;;;;;11.20;99.90;;;;;;5013757;28;19913;-73